sensor_id;sensor_type;location;lat;lon;timestamp;temperature;humidity
23477;DHT22;11911;50.768;13.150;2022-08-20T04:01:09;15.80;96.30
23477;DHT22;11911;50.768;13.150;2022-08-20T04:03:34;15.80;96.30
23477;DHT22;11911;50.768;13.150;2022-08-20T04:06:00;15.70;96.30
23477;DHT22;11911;50.768;13.150;2022-08-20T04:08:27;15.70;96.30
23477;DHT22;11911;50.768;13.150;2022-08-20T04:10:57;15.70;96.30
23477;DHT22;11911;50.768;13.150;2022-08-20T04:13:24;15.70;96.30
23477;DHT22;11911;50.768;13.150;2022-08-20T04:15:50;15.70;96.30
23477;DHT22;11911;50.768;13.150;2022-08-20T04:18:20;15.70;96.30
23477;DHT22;11911;50.768;13.150;2022-08-20T04:20:49;15.70;96.30
23477;DHT22;11911;50.768;13.150;2022-08-20T04:23:15;15.70;96.30
23477;DHT22;11911;50.768;13.150;2022-08-20T04:25:42;15.70;96.30
23477;DHT22;11911;50.768;13.150;2022-08-20T04:28:16;15.60;96.30
23477;DHT22;11911;50.768;13.150;2022-08-20T04:30:49;15.70;96.30
23477;DHT22;11911;50.768;13.150;2022-08-20T04:33:17;15.70;96.30
23477;DHT22;11911;50.768;13.150;2022-08-20T04:35:42;15.60;96.30
23477;DHT22;11911;50.768;13.150;2022-08-20T04:38:09;15.60;96.30
23477;DHT22;11911;50.768;13.150;2022-08-20T04:40:37;15.60;96.30
23477;DHT22;11911;50.768;13.150;2022-08-20T04:43:20;15.60;96.30
23477;DHT22;11911;50.768;13.150;2022-08-20T04:45:48;15.50;96.30
23477;DHT22;11911;50.768;13.150;2022-08-20T04:48:13;15.50;96.30
23477;DHT22;11911;50.768;13.150;2022-08-20T04:50:41;15.50;96.30
23477;DHT22;11911;50.768;13.150;2022-08-20T04:53:09;15.50;96.30
23477;DHT22;11911;50.768;13.150;2022-08-20T04:55:37;15.50;96.30
23477;DHT22;11911;50.768;13.150;2022-08-20T04:58:06;15.50;96.30
23477;DHT22;11911;50.768;13.150;2022-08-20T05:00:33;15.40;96.30
23477;DHT22;11911;50.768;13.150;2022-08-20T05:02:59;15.40;96.30
23477;DHT22;11911;50.768;13.150;2022-08-20T05:05:24;15.40;96.30
23477;DHT22;11911;50.768;13.150;2022-08-20T05:07:51;15.40;96.30
23477;DHT22;11911;50.768;13.150;2022-08-20T05:10:18;15.30;96.30
23477;DHT22;11911;50.768;13.150;2022-08-20T05:12:44;15.30;96.30
23477;DHT22;11911;50.768;13.150;2022-08-20T05:15:11;15.30;96.30
23477;DHT22;11911;50.768;13.150;2022-08-20T05:17:38;15.20;96.30
23477;DHT22;11911;50.768;13.150;2022-08-20T05:20:05;15.20;96.30
23477;DHT22;11911;50.768;13.150;2022-08-20T05:22:31;15.20;96.30
23477;DHT22;11911;50.768;13.150;2022-08-20T05:24:56;15.20;96.30
23477;DHT22;11911;50.768;13.150;2022-08-20T05:27:24;15.10;96.30
23477;DHT22;11911;50.768;13.150;2022-08-20T05:30:08;15.10;96.30
23477;DHT22;11911;50.768;13.150;2022-08-20T05:32:34;15.10;96.30
23477;DHT22;11911;50.768;13.150;2022-08-20T05:35:02;15.20;96.30
23477;DHT22;11911;50.768;13.150;2022-08-20T05:37:28;15.20;96.30
23477;DHT22;11911;50.768;13.150;2022-08-20T05:39:54;15.10;96.30
23477;DHT22;11911;50.768;13.150;2022-08-20T05:42:19;15.10;96.30
23477;DHT22;11911;50.768;13.150;2022-08-20T05:44:45;15.10;96.30
23477;DHT22;11911;50.768;13.150;2022-08-20T05:47:12;15.10;96.30
23477;DHT22;11911;50.768;13.150;2022-08-20T05:49:37;15.10;96.30
23477;DHT22;11911;50.768;13.150;2022-08-20T05:52:03;15.10;96.30
23477;DHT22;11911;50.768;13.150;2022-08-20T05:54:30;15.10;96.30
23477;DHT22;11911;50.768;13.150;2022-08-20T05:56:55;15.10;96.30
23477;DHT22;11911;50.768;13.150;2022-08-20T05:59:22;15.10;96.30
23477;DHT22;11911;50.768;13.150;2022-08-20T06:01:48;15.10;96.30
23477;DHT22;11911;50.768;13.150;2022-08-20T06:04:14;15.20;96.30
23477;DHT22;11911;50.768;13.150;2022-08-20T06:06:54;15.20;96.30
23477;DHT22;11911;50.768;13.150;2022-08-20T06:09:21;15.20;96.30
23477;DHT22;11911;50.768;13.150;2022-08-20T06:11:48;15.30;96.30
23477;DHT22;11911;50.768;13.150;2022-08-20T06:14:13;15.30;96.30
23477;DHT22;11911;50.768;13.150;2022-08-20T06:16:40;15.30;96.30
23477;DHT22;11911;50.768;13.150;2022-08-20T06:19:06;15.40;96.30
23477;DHT22;11911;50.768;13.150;2022-08-20T06:21:31;15.40;96.30
23477;DHT22;11911;50.768;13.150;2022-08-20T06:23:57;15.50;96.30
23477;DHT22;11911;50.768;13.150;2022-08-20T06:26:22;15.60;96.30
23477;DHT22;11911;50.768;13.150;2022-08-20T06:28:48;15.60;96.30
23477;DHT22;11911;50.768;13.150;2022-08-20T06:31:13;15.70;96.30
23477;DHT22;11911;50.768;13.150;2022-08-20T06:33:39;15.70;96.30
23477;DHT22;11911;50.768;13.150;2022-08-20T06:36:04;15.70;96.30
23477;DHT22;11911;50.768;13.150;2022-08-20T06:38:31;15.70;96.30
23477;DHT22;11911;50.768;13.150;2022-08-20T06:40:57;15.70;96.30
23477;DHT22;11911;50.768;13.150;2022-08-20T06:43:22;15.80;96.30
23477;DHT22;11911;50.768;13.150;2022-08-20T06:45:48;15.80;96.30
23477;DHT22;11911;50.768;13.150;2022-08-20T06:48:13;15.80;96.30
23477;DHT22;11911;50.768;13.150;2022-08-20T06:50:42;15.70;96.30
23477;DHT22;11911;50.768;13.150;2022-08-20T06:53:11;15.70;96.30
23477;DHT22;11911;50.768;13.150;2022-08-20T06:55:39;15.70;96.30
23477;DHT22;11911;50.768;13.150;2022-08-20T06:58:07;15.70;96.30
23477;DHT22;11911;50.768;13.150;2022-08-20T07:00:34;15.70;96.30
23477;DHT22;11911;50.768;13.150;2022-08-20T07:03:01;15.60;96.30
23477;DHT22;11911;50.768;13.150;2022-08-20T07:05:32;15.60;96.30
23477;DHT22;11911;50.768;13.150;2022-08-20T07:07:58;15.60;96.30
23477;DHT22;11911;50.768;13.150;2022-08-20T07:10:27;15.60;96.30
23477;DHT22;11911;50.768;13.150;2022-08-20T07:12:53;15.60;96.30
23477;DHT22;11911;50.768;13.150;2022-08-20T07:15:21;15.70;96.30
23477;DHT22;11911;50.768;13.150;2022-08-20T07:18:00;15.80;96.30
23477;DHT22;11911;50.768;13.150;2022-08-20T07:20:27;15.90;96.30
23477;DHT22;11911;50.768;13.150;2022-08-20T07:22:53;15.80;96.30
23477;DHT22;11911;50.768;13.150;2022-08-20T07:25:20;15.90;96.30
23477;DHT22;11911;50.768;13.150;2022-08-20T07:27:47;16.00;96.30
23477;DHT22;11911;50.768;13.150;2022-08-20T07:30:25;16.00;96.30
23477;DHT22;11911;50.768;13.150;2022-08-20T07:33:10;16.00;96.30
23477;DHT22;11911;50.768;13.150;2022-08-20T07:35:39;16.00;96.30
23477;DHT22;11911;50.768;13.150;2022-08-20T07:38:05;15.90;96.30
23477;DHT22;11911;50.768;13.150;2022-08-20T07:40:33;15.90;96.30
23477;DHT22;11911;50.768;13.150;2022-08-20T07:42:59;15.80;96.30
23477;DHT22;11911;50.768;13.150;2022-08-20T07:45:27;15.80;96.30
23477;DHT22;11911;50.768;13.150;2022-08-20T07:47:53;15.90;96.30
23477;DHT22;11911;50.768;13.150;2022-08-20T07:50:22;15.90;96.30
23477;DHT22;11911;50.768;13.150;2022-08-20T07:52:47;15.90;96.30
23477;DHT22;11911;50.768;13.150;2022-08-20T07:55:16;15.90;96.30
23477;DHT22;11911;50.768;13.150;2022-08-20T07:57:43;15.80;96.30
23477;DHT22;11911;50.768;13.150;2022-08-20T08:00:11;15.80;96.30
23477;DHT22;11911;50.768;13.150;2022-08-20T08:02:38;15.80;96.30
23477;DHT22;11911;50.768;13.150;2022-08-20T08:05:04;15.80;96.30
23477;DHT22;11911;50.768;13.150;2022-08-20T08:07:31;15.90;96.30
23477;DHT22;11911;50.768;13.150;2022-08-20T08:10:00;15.90;96.30
23477;DHT22;11911;50.768;13.150;2022-08-20T08:12:34;16.00;96.30
23477;DHT22;11911;50.768;13.150;2022-08-20T08:15:02;16.10;96.30
23477;DHT22;11911;50.768;13.150;2022-08-20T08:17:28;16.30;96.30
23477;DHT22;11911;50.768;13.150;2022-08-20T08:19:55;16.40;96.30
23477;DHT22;11911;50.768;13.150;2022-08-20T08:22:21;16.50;96.30
23477;DHT22;11911;50.768;13.150;2022-08-20T08:24:46;16.60;96.30
23477;DHT22;11911;50.768;13.150;2022-08-20T08:27:15;16.70;96.30
23477;DHT22;11911;50.768;13.150;2022-08-20T08:29:44;16.90;96.30
23477;DHT22;11911;50.768;13.150;2022-08-20T08:32:10;17.00;96.30
23477;DHT22;11911;50.768;13.150;2022-08-20T08:34:36;17.10;96.30
23477;DHT22;11911;50.768;13.150;2022-08-20T08:37:02;17.40;96.30
23477;DHT22;11911;50.768;13.150;2022-08-20T08:39:32;17.70;96.30
23477;DHT22;11911;50.768;13.150;2022-08-20T08:41:59;18.00;96.30
23477;DHT22;11911;50.768;13.150;2022-08-20T08:44:35;18.20;96.30
23477;DHT22;11911;50.768;13.150;2022-08-20T08:47:07;18.30;96.30
23477;DHT22;11911;50.768;13.150;2022-08-20T08:49:43;18.40;96.30
23477;DHT22;11911;50.768;13.150;2022-08-20T08:52:14;18.60;96.30
23477;DHT22;11911;50.768;13.150;2022-08-20T08:54:47;18.50;96.30
23477;DHT22;11911;50.768;13.150;2022-08-20T08:57:14;18.50;96.30
23477;DHT22;11911;50.768;13.150;2022-08-20T08:59:41;18.70;96.30
23477;DHT22;11911;50.768;13.150;2022-08-20T09:02:17;18.80;96.30
23477;DHT22;11911;50.768;13.150;2022-08-20T09:04:44;18.70;96.30
23477;DHT22;11911;50.768;13.150;2022-08-20T09:07:13;18.70;96.30
23477;DHT22;11911;50.768;13.150;2022-08-20T09:09:41;18.60;96.30
23477;DHT22;11911;50.768;13.150;2022-08-20T09:12:13;18.50;96.30
23477;DHT22;11911;50.768;13.150;2022-08-20T09:14:38;18.40;96.30
23477;DHT22;11911;50.768;13.150;2022-08-20T09:17:04;18.40;96.30
23477;DHT22;11911;50.768;13.150;2022-08-20T09:19:30;18.40;96.30
23477;DHT22;11911;50.768;13.150;2022-08-20T09:21:56;18.20;96.30
23477;DHT22;11911;50.768;13.150;2022-08-20T09:24:22;18.30;96.30
23477;DHT22;11911;50.768;13.150;2022-08-20T09:26:47;18.60;96.30
23477;DHT22;11911;50.768;13.150;2022-08-20T09:29:13;18.70;96.30
23477;DHT22;11911;50.768;13.150;2022-08-20T09:31:39;18.50;96.30
23477;DHT22;11911;50.768;13.150;2022-08-20T09:34:05;18.50;96.30
23477;DHT22;11911;50.768;13.150;2022-08-20T09:36:31;18.70;96.30
23477;DHT22;11911;50.768;13.150;2022-08-20T09:38:57;18.70;96.30
23477;DHT22;11911;50.768;13.150;2022-08-20T09:41:22;18.70;96.30
23477;DHT22;11911;50.768;13.150;2022-08-20T09:43:48;18.70;96.30
23477;DHT22;11911;50.768;13.150;2022-08-20T09:46:13;18.70;96.30
23477;DHT22;11911;50.768;13.150;2022-08-20T09:48:39;18.70;96.30
23477;DHT22;11911;50.768;13.150;2022-08-20T09:51:04;18.80;96.30
23477;DHT22;11911;50.768;13.150;2022-08-20T09:53:30;18.70;96.30
23477;DHT22;11911;50.768;13.150;2022-08-20T09:55:56;18.60;96.30
23477;DHT22;11911;50.768;13.150;2022-08-20T09:58:34;18.70;96.30
23477;DHT22;11911;50.768;13.150;2022-08-20T10:01:07;18.70;96.30
23477;DHT22;11911;50.768;13.150;2022-08-20T10:03:33;18.60;96.30
23477;DHT22;11911;50.768;13.150;2022-08-20T10:05:59;18.60;96.30
23477;DHT22;11911;50.768;13.150;2022-08-20T10:08:25;18.50;96.30
23477;DHT22;11911;50.768;13.150;2022-08-20T10:10:50;18.40;96.30
23477;DHT22;11911;50.768;13.150;2022-08-20T10:13:16;18.30;96.30
23477;DHT22;11911;50.768;13.150;2022-08-20T10:15:42;18.20;96.30
23477;DHT22;11911;50.768;13.150;2022-08-20T10:18:07;18.30;96.30
23477;DHT22;11911;50.768;13.150;2022-08-20T10:20:33;18.30;96.30
23477;DHT22;11911;50.768;13.150;2022-08-20T10:23:00;18.30;96.30
23477;DHT22;11911;50.768;13.150;2022-08-20T10:25:25;18.30;96.30
23477;DHT22;11911;50.768;13.150;2022-08-20T10:27:53;18.30;96.30
23477;DHT22;11911;50.768;13.150;2022-08-20T10:30:18;18.30;96.30
23477;DHT22;11911;50.768;13.150;2022-08-20T10:32:44;18.30;96.30
23477;DHT22;11911;50.768;13.150;2022-08-20T10:35:09;18.40;96.30
23477;DHT22;11911;50.768;13.150;2022-08-20T10:37:35;18.50;96.30
23477;DHT22;11911;50.768;13.150;2022-08-20T10:40:01;18.60;96.30
23477;DHT22;11911;50.768;13.150;2022-08-20T10:42:27;18.70;96.30
23477;DHT22;11911;50.768;13.150;2022-08-20T10:44:52;18.60;96.30
23477;DHT22;11911;50.768;13.150;2022-08-20T10:47:22;18.50;96.30
23477;DHT22;11911;50.768;13.150;2022-08-20T10:49:49;18.50;96.30
23477;DHT22;11911;50.768;13.150;2022-08-20T10:52:15;18.50;96.30
23477;DHT22;11911;50.768;13.150;2022-08-20T10:54:41;18.60;96.30
23477;DHT22;11911;50.768;13.150;2022-08-20T10:57:09;18.70;96.30
23477;DHT22;11911;50.768;13.150;2022-08-20T10:59:42;18.80;96.30
23477;DHT22;11911;50.768;13.150;2022-08-20T11:02:07;18.90;96.30
23477;DHT22;11911;50.768;13.150;2022-08-20T11:04:33;19.00;96.30
23477;DHT22;11911;50.768;13.150;2022-08-20T11:07:13;19.20;96.30
23477;DHT22;11911;50.768;13.150;2022-08-20T11:09:40;19.20;96.30
23477;DHT22;11911;50.768;13.150;2022-08-20T11:12:06;19.40;96.30
23477;DHT22;11911;50.768;13.150;2022-08-20T11:14:32;19.40;96.30
23477;DHT22;11911;50.768;13.150;2022-08-20T11:16:58;19.60;96.30
23477;DHT22;11911;50.768;13.150;2022-08-20T11:19:23;19.70;96.30
23477;DHT22;11911;50.768;13.150;2022-08-20T11:21:49;19.90;96.30
23477;DHT22;11911;50.768;13.150;2022-08-20T11:24:14;20.00;96.30
23477;DHT22;11911;50.768;13.150;2022-08-20T11:26:40;19.90;96.30
23477;DHT22;11911;50.768;13.150;2022-08-20T11:29:05;19.70;96.30
23477;DHT22;11911;50.768;13.150;2022-08-20T11:31:31;19.60;96.30
23477;DHT22;11911;50.768;13.150;2022-08-20T11:33:56;19.60;96.30
23477;DHT22;11911;50.768;13.150;2022-08-20T11:36:22;19.50;96.30
23477;DHT22;11911;50.768;13.150;2022-08-20T11:38:51;19.60;96.30
23477;DHT22;11911;50.768;13.150;2022-08-20T11:41:16;19.40;96.30
23477;DHT22;11911;50.768;13.150;2022-08-20T11:43:42;19.40;96.30
23477;DHT22;11911;50.768;13.150;2022-08-20T11:46:08;19.30;96.30
23477;DHT22;11911;50.768;13.150;2022-08-20T11:48:33;19.40;96.30
23477;DHT22;11911;50.768;13.150;2022-08-20T11:50:59;19.40;96.30
23477;DHT22;11911;50.768;13.150;2022-08-20T11:53:24;19.30;96.30
23477;DHT22;11911;50.768;13.150;2022-08-20T11:55:49;19.30;96.30
23477;DHT22;11911;50.768;13.150;2022-08-20T11:58:15;19.40;96.30
23477;DHT22;11911;50.768;13.150;2022-08-20T12:00:41;19.40;96.30
23477;DHT22;11911;50.768;13.150;2022-08-20T12:03:07;19.40;96.30
23477;DHT22;11911;50.768;13.150;2022-08-20T12:05:33;19.30;96.30
23477;DHT22;11911;50.768;13.150;2022-08-20T12:08:01;19.30;96.30
23477;DHT22;11911;50.768;13.150;2022-08-20T12:10:27;19.30;96.30
23477;DHT22;11911;50.768;13.150;2022-08-20T12:12:53;19.20;96.30
23477;DHT22;11911;50.768;13.150;2022-08-20T12:15:19;19.00;96.30
23477;DHT22;11911;50.768;13.150;2022-08-20T12:17:45;19.00;96.30
23477;DHT22;11911;50.768;13.150;2022-08-20T12:20:12;19.10;96.30
23477;DHT22;11911;50.768;13.150;2022-08-20T12:22:38;19.20;96.30
23477;DHT22;11911;50.768;13.150;2022-08-20T12:25:05;19.20;96.30
23477;DHT22;11911;50.768;13.150;2022-08-20T12:27:32;19.20;96.30
23477;DHT22;11911;50.768;13.150;2022-08-20T12:30:00;19.20;96.30
23477;DHT22;11911;50.768;13.150;2022-08-20T12:32:28;19.30;96.30
23477;DHT22;11911;50.768;13.150;2022-08-20T12:34:55;19.20;96.30
23477;DHT22;11911;50.768;13.150;2022-08-20T12:37:23;19.30;96.30
23477;DHT22;11911;50.768;13.150;2022-08-20T12:39:51;19.30;96.30
23477;DHT22;11911;50.768;13.150;2022-08-20T12:42:18;19.40;96.30
23477;DHT22;11911;50.768;13.150;2022-08-20T12:44:43;19.30;96.30
23477;DHT22;11911;50.768;13.150;2022-08-20T12:47:22;19.30;96.30
23477;DHT22;11911;50.768;13.150;2022-08-20T12:49:55;19.30;96.30
23477;DHT22;11911;50.768;13.150;2022-08-20T12:52:22;19.40;96.30
23477;DHT22;11911;50.768;13.150;2022-08-20T12:54:48;19.40;96.30
23477;DHT22;11911;50.768;13.150;2022-08-20T12:57:19;19.40;96.30
23477;DHT22;11911;50.768;13.150;2022-08-20T12:59:46;19.40;96.30
23477;DHT22;11911;50.768;13.150;2022-08-20T13:02:11;19.50;96.30
23477;DHT22;11911;50.768;13.150;2022-08-20T13:04:37;19.50;96.30
23477;DHT22;11911;50.768;13.150;2022-08-20T13:07:03;19.60;96.30
23477;DHT22;11911;50.768;13.150;2022-08-20T13:09:29;19.50;96.30
23477;DHT22;11911;50.768;13.150;2022-08-20T13:11:55;19.40;96.30
23477;DHT22;11911;50.768;13.150;2022-08-20T13:14:21;19.50;96.30
23477;DHT22;11911;50.768;13.150;2022-08-20T13:16:46;19.40;96.30
23477;DHT22;11911;50.768;13.150;2022-08-20T13:19:12;19.50;96.30
23477;DHT22;11911;50.768;13.150;2022-08-20T13:21:37;19.50;96.30
23477;DHT22;11911;50.768;13.150;2022-08-20T13:24:03;19.50;96.30
23477;DHT22;11911;50.768;13.150;2022-08-20T13:26:29;19.50;96.30
23477;DHT22;11911;50.768;13.150;2022-08-20T13:28:55;19.40;96.30
23477;DHT22;11911;50.768;13.150;2022-08-20T13:31:20;19.30;96.30
23477;DHT22;11911;50.768;13.150;2022-08-20T13:33:46;19.20;96.30
23477;DHT22;11911;50.768;13.150;2022-08-20T13:36:11;19.20;96.30
23477;DHT22;11911;50.768;13.150;2022-08-20T13:38:37;19.10;96.30
23477;DHT22;11911;50.768;13.150;2022-08-20T13:41:03;19.00;96.30
23477;DHT22;11911;50.768;13.150;2022-08-20T13:43:28;19.00;96.30
23477;DHT22;11911;50.768;13.150;2022-08-20T13:45:53;19.00;96.30
23477;DHT22;11911;50.768;13.150;2022-08-20T13:48:19;18.90;96.30
23477;DHT22;11911;50.768;13.150;2022-08-20T13:50:44;18.80;96.30
23477;DHT22;11911;50.768;13.150;2022-08-20T13:53:10;18.80;96.30
23477;DHT22;11911;50.768;13.150;2022-08-20T13:55:36;18.70;96.30
23477;DHT22;11911;50.768;13.150;2022-08-20T13:58:05;18.60;96.30
23477;DHT22;11911;50.768;13.150;2022-08-20T14:00:32;18.60;96.30
23477;DHT22;11911;50.768;13.150;2022-08-20T14:03:02;18.60;96.30
23477;DHT22;11911;50.768;13.150;2022-08-20T14:05:29;18.50;96.30
23477;DHT22;11911;50.768;13.150;2022-08-20T14:07:55;18.50;96.30
23477;DHT22;11911;50.768;13.150;2022-08-20T14:10:23;18.50;96.30
23477;DHT22;11911;50.768;13.150;2022-08-20T14:12:50;18.40;96.30
23477;DHT22;11911;50.768;13.150;2022-08-20T14:15:16;18.40;96.30
23477;DHT22;11911;50.768;13.150;2022-08-20T14:17:51;18.40;96.30
23477;DHT22;11911;50.768;13.150;2022-08-20T14:20:21;18.30;96.30
23477;DHT22;11911;50.768;13.150;2022-08-20T14:22:46;18.40;96.30
23477;DHT22;11911;50.768;13.150;2022-08-20T14:25:14;18.30;96.30
23477;DHT22;11911;50.768;13.150;2022-08-20T14:27:40;18.30;96.30
23477;DHT22;11911;50.768;13.150;2022-08-20T14:30:09;18.30;96.30
23477;DHT22;11911;50.768;13.150;2022-08-20T14:32:35;18.30;96.30
23477;DHT22;11911;50.768;13.150;2022-08-20T14:35:01;18.20;96.30
23477;DHT22;11911;50.768;13.150;2022-08-20T14:37:30;18.20;96.30
23477;DHT22;11911;50.768;13.150;2022-08-20T14:39:58;18.10;96.30
23477;DHT22;11911;50.768;13.150;2022-08-20T14:42:25;18.10;96.30
23477;DHT22;11911;50.768;13.150;2022-08-20T14:44:56;18.10;96.30
23477;DHT22;11911;50.768;13.150;2022-08-20T14:47:25;18.10;96.30
23477;DHT22;11911;50.768;13.150;2022-08-20T14:49:52;18.10;96.30
23477;DHT22;11911;50.768;13.150;2022-08-20T14:52:19;18.00;96.30
23477;DHT22;11911;50.768;13.150;2022-08-20T14:54:46;18.00;96.30
23477;DHT22;11911;50.768;13.150;2022-08-20T14:57:14;18.00;96.30
23477;DHT22;11911;50.768;13.150;2022-08-20T14:59:40;17.90;96.30
23477;DHT22;11911;50.768;13.150;2022-08-20T15:02:08;18.00;96.30
23477;DHT22;11911;50.768;13.150;2022-08-20T15:04:34;18.00;96.30
23477;DHT22;11911;50.768;13.150;2022-08-20T15:07:01;17.90;96.30
23477;DHT22;11911;50.768;13.150;2022-08-20T15:09:34;17.90;96.30
23477;DHT22;11911;50.768;13.150;2022-08-20T15:12:00;17.90;96.30
23477;DHT22;11911;50.768;13.150;2022-08-20T15:14:26;17.90;96.30
23477;DHT22;11911;50.768;13.150;2022-08-20T15:16:53;17.90;96.30
23477;DHT22;11911;50.768;13.150;2022-08-20T15:19:19;17.90;96.30
23477;DHT22;11911;50.768;13.150;2022-08-20T15:21:45;17.80;96.30
23477;DHT22;11911;50.768;13.150;2022-08-20T15:24:12;17.80;96.30
23477;DHT22;11911;50.768;13.150;2022-08-20T15:26:38;17.80;96.30
23477;DHT22;11911;50.768;13.150;2022-08-20T15:29:03;17.80;96.30
23477;DHT22;11911;50.768;13.150;2022-08-20T15:31:29;17.70;96.30
23477;DHT22;11911;50.768;13.150;2022-08-20T15:33:55;17.70;96.30
23477;DHT22;11911;50.768;13.150;2022-08-20T15:36:21;17.60;96.30
23477;DHT22;11911;50.768;13.150;2022-08-20T15:38:46;17.70;96.30
23477;DHT22;11911;50.768;13.150;2022-08-20T15:41:12;17.70;96.30
23477;DHT22;11911;50.768;13.150;2022-08-20T15:43:37;17.70;96.30
23477;DHT22;11911;50.768;13.150;2022-08-20T15:46:04;17.70;96.30
23477;DHT22;11911;50.768;13.150;2022-08-20T15:48:36;17.70;96.30
23477;DHT22;11911;50.768;13.150;2022-08-20T15:53:55;17.70;96.30
23477;DHT22;11911;50.768;13.150;2022-08-20T16:07:53;17.70;96.30
23477;DHT22;11911;50.768;13.150;2022-08-20T16:10:56;17.70;96.30
23477;DHT22;11911;50.768;13.150;2022-08-20T16:13:38;17.70;96.30
23477;DHT22;11911;50.768;13.150;2022-08-20T16:16:13;17.60;96.30
23477;DHT22;11911;50.768;13.150;2022-08-20T16:18:40;17.60;96.30
23477;DHT22;11911;50.768;13.150;2022-08-20T16:21:11;17.60;96.30
23477;DHT22;11911;50.768;13.150;2022-08-20T16:23:39;17.60;96.30
23477;DHT22;11911;50.768;13.150;2022-08-20T16:26:12;17.50;96.30
23477;DHT22;11911;50.768;13.150;2022-08-20T16:28:51;17.50;96.30
23477;DHT22;11911;50.768;13.150;2022-08-20T16:31:27;17.50;96.30
23477;DHT22;11911;50.768;13.150;2022-08-20T16:34:05;17.50;96.30
23477;DHT22;11911;50.768;13.150;2022-08-20T16:36:42;17.50;96.30
23477;DHT22;11911;50.768;13.150;2022-08-20T16:39:34;17.50;96.30
23477;DHT22;11911;50.768;13.150;2022-08-20T16:42:02;17.50;96.30
23477;DHT22;11911;50.768;13.150;2022-08-20T16:47:26;17.50;96.30
23477;DHT22;11911;50.768;13.150;2022-08-20T16:52:23;17.40;96.30
23477;DHT22;11911;50.768;13.150;2022-08-20T16:54:48;17.30;96.30
23477;DHT22;11911;50.768;13.150;2022-08-20T16:57:14;17.30;96.30
23477;DHT22;11911;50.768;13.150;2022-08-20T17:02:52;17.30;96.30
23477;DHT22;11911;50.768;13.150;2022-08-20T17:05:19;17.30;96.30
23477;DHT22;11911;50.768;13.150;2022-08-20T17:07:48;17.20;96.30
23477;DHT22;11911;50.768;13.150;2022-08-20T17:10:22;17.20;96.30
23477;DHT22;11911;50.768;13.150;2022-08-20T17:12:52;17.20;96.30
23477;DHT22;11911;50.768;13.150;2022-08-20T17:15:24;17.20;96.30
23477;DHT22;11911;50.768;13.150;2022-08-20T17:17:50;17.20;96.30
23477;DHT22;11911;50.768;13.150;2022-08-20T17:20:20;17.20;96.30
23477;DHT22;11911;50.768;13.150;2022-08-20T17:22:49;17.10;96.30
23477;DHT22;11911;50.768;13.150;2022-08-20T17:25:20;17.10;96.30
23477;DHT22;11911;50.768;13.150;2022-08-20T17:27:46;17.10;96.30
23477;DHT22;11911;50.768;13.150;2022-08-20T17:30:19;17.00;96.30
23477;DHT22;11911;50.768;13.150;2022-08-20T17:32:57;17.00;96.30
23477;DHT22;11911;50.768;13.150;2022-08-20T17:35:28;16.90;96.30
23477;DHT22;11911;50.768;13.150;2022-08-20T17:37:54;16.90;96.30
23477;DHT22;11911;50.768;13.150;2022-08-20T17:40:28;16.90;96.30
23477;DHT22;11911;50.768;13.150;2022-08-20T17:42:59;16.90;96.30
23477;DHT22;11911;50.768;13.150;2022-08-20T17:45:55;16.80;96.30
23477;DHT22;11911;50.768;13.150;2022-08-20T17:48:24;16.80;96.30
23477;DHT22;11911;50.768;13.150;2022-08-20T17:50:52;16.80;96.30
23477;DHT22;11911;50.768;13.150;2022-08-20T17:53:22;16.80;96.30
23477;DHT22;11911;50.768;13.150;2022-08-20T17:55:51;16.80;96.30
23477;DHT22;11911;50.768;13.150;2022-08-20T17:58:20;16.80;96.30
23477;DHT22;11911;50.768;13.150;2022-08-20T18:00:49;16.80;96.30
23477;DHT22;11911;50.768;13.150;2022-08-20T18:03:22;16.70;96.30
23477;DHT22;11911;50.768;13.150;2022-08-20T18:05:56;16.70;96.30
23477;DHT22;11911;50.768;13.150;2022-08-20T18:08:40;16.70;96.30
23477;DHT22;11911;50.768;13.150;2022-08-20T18:13:58;16.70;96.30
23477;DHT22;11911;50.768;13.150;2022-08-20T18:16:54;16.60;96.30
23477;DHT22;11911;50.768;13.150;2022-08-20T18:19:57;16.60;96.30
23477;DHT22;11911;50.768;13.150;2022-08-20T18:22:30;16.70;96.30
23477;DHT22;11911;50.768;13.150;2022-08-20T18:25:08;16.70;96.30
23477;DHT22;11911;50.768;13.150;2022-08-20T18:27:43;16.70;96.30
23477;DHT22;11911;50.768;13.150;2022-08-20T18:30:16;16.70;96.30
23477;DHT22;11911;50.768;13.150;2022-08-20T18:32:43;16.70;96.30
23477;DHT22;11911;50.768;13.150;2022-08-20T18:35:18;16.70;96.30
23477;DHT22;11911;50.768;13.150;2022-08-20T18:37:44;16.70;96.30
23477;DHT22;11911;50.768;13.150;2022-08-20T18:40:22;16.70;96.30
23477;DHT22;11911;50.768;13.150;2022-08-20T18:42:50;16.70;96.30
23477;DHT22;11911;50.768;13.150;2022-08-20T18:45:27;16.60;96.30
23477;DHT22;11911;50.768;13.150;2022-08-20T18:47:52;16.60;96.30
23477;DHT22;11911;50.768;13.150;2022-08-20T18:50:42;16.60;96.30
23477;DHT22;11911;50.768;13.150;2022-08-20T18:55:40;16.60;96.30
23477;DHT22;11911;50.768;13.150;2022-08-20T18:58:09;16.50;96.30
23477;DHT22;11911;50.768;13.150;2022-08-20T19:00:46;16.50;96.30
23477;DHT22;11911;50.768;13.150;2022-08-20T19:08:40;16.30;96.30
23477;DHT22;11911;50.768;13.150;2022-08-20T19:11:50;16.30;96.30
23477;DHT22;11911;50.768;13.150;2022-08-20T19:14:34;16.30;96.30
23477;DHT22;11911;50.768;13.150;2022-08-20T19:17:09;16.20;96.30
23477;DHT22;11911;50.768;13.150;2022-08-20T19:19:36;16.20;96.30
23477;DHT22;11911;50.768;13.150;2022-08-20T19:22:02;16.20;96.30
23477;DHT22;11911;50.768;13.150;2022-08-20T19:24:30;16.20;96.30
23477;DHT22;11911;50.768;13.150;2022-08-20T19:27:00;16.10;96.30
23477;DHT22;11911;50.768;13.150;2022-08-20T19:29:30;16.10;96.30
23477;DHT22;11911;50.768;13.150;2022-08-20T19:31:59;16.10;96.30
23477;DHT22;11911;50.768;13.150;2022-08-20T19:34:25;16.10;96.30
23477;DHT22;11911;50.768;13.150;2022-08-20T19:36:54;16.10;96.30
23477;DHT22;11911;50.768;13.150;2022-08-20T19:39:20;16.10;96.30
23477;DHT22;11911;50.768;13.150;2022-08-20T19:41:51;16.10;96.30
23477;DHT22;11911;50.768;13.150;2022-08-20T19:44:35;16.10;96.30
23477;DHT22;11911;50.768;13.150;2022-08-20T19:47:02;16.10;96.30
23477;DHT22;11911;50.768;13.150;2022-08-20T19:52:56;16.20;96.30
23477;DHT22;11911;50.768;13.150;2022-08-20T19:55:30;16.20;96.30
23477;DHT22;11911;50.768;13.150;2022-08-20T19:57:59;16.20;96.30
23477;DHT22;11911;50.768;13.150;2022-08-20T20:00:28;16.20;96.30